Terminal Aerodrome Forecast
Issued by NWS

Current Version | Previous Version | Text Only | Print | Product List | Glossary On
Versions: 1 2 3 4 5 6 7 8 9 10 11 12 13 14
000
FTUS42 TJSJ 020545
TAFJPS
TAF
TJPS 020545Z 0206/0306 05005KT P6SM VCSH FEW030
     FM021500 14010G16KT P6SM VCSH FEW030 SCT040 BKN100
     FM022330 10006KT P6SM FEW030 SCT100=

USA.gov is the U.S. government's official web portal to all federal, state and local government web resources and services.